This is the latest recevied weather packets stored in our database for station/object KB4MOX. If no packets are shown the sender has not sent any weather packets the latest 10 day(s).
| Time | Temp. | Humidity | Pressure | Rain* | Wind** | Luminosity | Snow |
|---|---|---|---|---|---|---|---|
| 1788105592 | 28.89° C | 72% | 1022.6 hPa | 0 mm | - | 781 W/m² | - |
| 1788105289 | 28.89° C | 71% | 1022.6 hPa | 0 mm | - | 426 W/m² | - |
| 1788104984 | 28.89° C | 71% | 1022.7 hPa | 0 mm | - | 466 W/m² | - |
| 1788104679 | 28.89° C | 70% | 1022.9 hPa | 0 mm | - | 751 W/m² | - |
| 1788104376 | 28.33° C | 74% | 1022.8 hPa | 0 mm | - | 305 W/m² | - |
| 1788104071 | 28.33° C | 74% | 1022.5 hPa | 0 mm | - | 119 W/m² | - |
| 1788103771 | 28.33° C | 75% | 1022.7 hPa | 0 mm | - | 653 W/m² | - |
| 1788103466 | 27.78° C | 77% | 1022.7 hPa | 0 mm | - | 500 W/m² | - |
| 1788103160 | 27.22° C | 79% | 1022.7 hPa | 0 mm | - | 121 W/m² | - |
| 1788102859 | 27.22° C | 77% | 1022.8 hPa | 0 mm | - | 104 W/m² | - |
| 1788102554 | 27.78° C | 78% | 1023 hPa | 0 mm | - | 282 W/m² | - |
| 1788102254 | 27.22° C | 79% | 1022.7 hPa | 0 mm | - | 126 W/m² | - |
| 1788101948 | 26.67° C | 80% | 1022.7 hPa | 0 mm | - | 109 W/m² | - |
| 1788101644 | 26.67° C | 81% | 1022.8 hPa | 0 mm | - | 604 W/m² | - |
| 1788101344 | 26.67° C | 81% | 1022.8 hPa | 0 mm | - | 202 W/m² | - |
| 1788101040 | 26.67° C | 84% | 1022.6 hPa | 0 mm | - | 146 W/m² | - |
| 1788100736 | 26.67° C | 83% | 1022.5 hPa | 0 mm | - | 115 W/m² | - |
| 1788100436 | 26.11° C | 85% | 1022.9 hPa | 0 mm | - | 120 W/m² | - |
| 1788100135 | 26.11° C | 85% | 1022.7 hPa | 0 mm | - | 158 W/m² | - |
| 1788099830 | 26.11° C | 86% | 1022.8 hPa | 0 mm | - | 168 W/m² | - |
| 1788099525 | 25.56° C | 87% | 1022.8 hPa | 0 mm | - | 168 W/m² | - |
| 1788099220 | 25.56° C | 87% | 1022.7 hPa | 0 mm | - | 136 W/m² | - |
| 1788098915 | 25.56° C | 88% | 1022.8 hPa | 0 mm | - | 136 W/m² | - |
| 1788098610 | 25° C | 91% | 1022.8 hPa | 0 mm | - | 136 W/m² | - |
| 1788098304 | 25° C | 92% | 1022.6 hPa | 0 mm | - | 215 W/m² | - |
* Rain latest hour (hover to see other rain measurements)
** Current wind speed in m/s (hover to see current wind gust speed)